createdAt,value
2016-03-16T00:00:00.900Z,1026.62
2016-03-16T00:01:00.887Z,1026.71
2016-03-16T00:02:00.875Z,1026.71
2016-03-16T00:03:00.862Z,1026.68
2016-03-16T00:04:00.864Z,1026.7
2016-03-16T00:05:00.851Z,1026.67
2016-03-16T00:06:00.838Z,1026.7
2016-03-16T00:07:00.825Z,1026.75
2016-03-16T00:08:00.812Z,1026.67
2016-03-16T00:09:00.815Z,1026.71
2016-03-16T00:10:00.802Z,1026.72
2016-03-16T00:11:00.789Z,1026.76
2016-03-16T00:12:00.792Z,1026.76
2016-03-16T00:13:00.779Z,1026.79
2016-03-16T00:14:00.766Z,1026.7
2016-03-16T00:15:00.753Z,1026.71
2016-03-16T00:16:00.741Z,1026.72
2016-03-16T00:17:00.727Z,1026.68
2016-03-16T00:18:00.730Z,1026.77
2016-03-16T00:19:00.717Z,1026.76
2016-03-16T00:20:00.695Z,1026.76
2016-03-16T00:21:00.670Z,1026.82
2016-03-16T00:22:00.660Z,1026.74
2016-03-16T00:23:00.651Z,1026.77
2016-03-16T00:24:00.611Z,1026.83
2016-03-16T00:25:02.561Z,1026.76
2016-03-16T00:26:01.997Z,1026.8
2016-03-16T00:27:00.574Z,1026.81
2016-03-16T00:28:01.728Z,1026.73
2016-03-16T00:29:00.540Z,1026.84
2016-03-16T00:30:00.540Z,1026.84
2016-03-16T00:31:00.529Z,1026.87
2016-03-16T00:32:00.514Z,1026.84
2016-03-16T00:33:00.501Z,1026.84
2016-03-16T00:34:00.485Z,1026.84
2016-03-16T00:35:00.488Z,1026.88
2016-03-16T00:36:00.474Z,1026.89
2016-03-16T00:37:00.446Z,1026.88
2016-03-16T00:38:00.448Z,1026.89
2016-03-16T00:39:00.434Z,1026.89
2016-03-16T00:40:00.421Z,1026.95
2016-03-16T00:41:01.064Z,1026.83
2016-03-16T00:42:00.410Z,1026.88
2016-03-16T00:43:00.397Z,1026.88
2016-03-16T00:44:00.384Z,1026.85
2016-03-16T00:45:00.370Z,1026.84
2016-03-16T00:46:00.373Z,1026.83
2016-03-16T00:47:00.516Z,1026.87
2016-03-16T00:48:00.347Z,1026.87
2016-03-16T00:49:00.334Z,1026.88
2016-03-16T00:50:00.791Z,1026.85
2016-03-16T00:51:01.214Z,1026.81
2016-03-16T00:52:00.311Z,1026.81
2016-03-16T00:53:00.299Z,1026.83
2016-03-16T00:54:00.301Z,1026.88
2016-03-16T00:55:00.679Z,1026.79
2016-03-16T00:56:00.275Z,1026.8
2016-03-16T00:57:00.262Z,1026.77
2016-03-16T00:58:00.265Z,1026.82
2016-03-16T00:59:00.237Z,1026.82
2016-03-16T01:00:00.239Z,1026.8
2016-03-16T01:01:00.227Z,1026.82
2016-03-16T01:02:00.213Z,1026.83
2016-03-16T01:03:00.201Z,1026.86
2016-03-16T01:04:00.219Z,1026.86
2016-03-16T01:05:00.191Z,1026.88
2016-03-16T01:06:00.177Z,1026.9
2016-03-16T01:07:00.168Z,1026.91
2016-03-16T01:08:00.171Z,1026.88
2016-03-16T01:09:00.142Z,1026.91
2016-03-16T01:10:00.144Z,1026.9
2016-03-16T01:11:00.131Z,1026.84
2016-03-16T01:12:00.118Z,1026.89
2016-03-16T01:13:00.105Z,1026.88
2016-03-16T01:14:00.097Z,1026.9
2016-03-16T01:15:00.115Z,1026.9
2016-03-16T01:16:00.087Z,1026.9
2016-03-16T01:17:00.089Z,1026.96
2016-03-16T01:18:00.062Z,1026.98
2016-03-16T01:19:00.048Z,1026.96
2016-03-16T01:20:00.036Z,1026.95
2016-03-16T01:21:00.038Z,1026.93
2016-03-16T01:22:00.026Z,1026.93
2016-03-16T01:23:00.012Z,1026.96
2016-03-16T01:24:00.000Z,1026.95
2016-03-16T01:24:59.987Z,1026.95
2016-03-16T01:25:59.989Z,1026.92
2016-03-16T01:26:59.976Z,1026.91
2016-03-16T01:27:59.964Z,1026.88
2016-03-16T01:28:59.966Z,1026.88
2016-03-16T01:30:00.219Z,1026.96
2016-03-16T01:30:59.940Z,1026.87
2016-03-16T01:31:59.927Z,1026.84
2016-03-16T01:32:59.930Z,1026.95
2016-03-16T01:33:59.917Z,1026.85
2016-03-16T01:34:59.904Z,1026.86
2016-03-16T01:35:59.891Z,1026.87
2016-03-16T01:36:59.878Z,1026.86
2016-03-16T01:37:59.866Z,1026.92
2016-03-16T01:38:59.852Z,1026.84
2016-03-16T01:39:59.855Z,1026.9
2016-03-16T01:40:59.843Z,1026.93
2016-03-16T01:41:59.829Z,1026.86
2016-03-16T01:42:59.832Z,1026.88
2016-03-16T01:43:59.818Z,1026.98
2016-03-16T01:44:59.806Z,1026.92
2016-03-16T01:46:00.902Z,1026.96
2016-03-16T01:46:59.779Z,1026.91
2016-03-16T01:47:59.767Z,1026.95
2016-03-16T01:48:59.770Z,1026.96
2016-03-16T01:49:59.757Z,1026.96
2016-03-16T01:50:59.744Z,1026.96
2016-03-16T01:52:00.090Z,1027
2016-03-16T01:53:00.921Z,1027.02
2016-03-16T01:53:59.721Z,1026.95
2016-03-16T01:55:00.473Z,1027.01
2016-03-16T01:56:00.492Z,1027.03
2016-03-16T01:56:59.698Z,1027.05
2016-03-16T01:57:59.685Z,1027.05
2016-03-16T01:59:00.625Z,1027.1
2016-03-16T01:59:59.659Z,1027.13
2016-03-16T02:00:59.647Z,1027.05
2016-03-16T02:01:59.649Z,1027.09
2016-03-16T02:03:59.733Z,1027.04
2016-03-16T02:04:59.610Z,1027.09
2016-03-16T02:05:59.597Z,1027.12
2016-03-16T02:06:59.599Z,1027.09
2016-03-16T02:07:59.586Z,1027.07
2016-03-16T02:08:59.573Z,1027.12
2016-03-16T02:09:59.560Z,1027.11
2016-03-16T02:11:59.847Z,1027.08
2016-03-16T02:12:59.568Z,1027.16
2016-03-16T02:13:59.524Z,1027.17
2016-03-16T02:14:59.511Z,1027.11
2016-03-16T02:15:59.607Z,1027.16
2016-03-16T02:16:59.501Z,1027.2
2016-03-16T02:17:59.488Z,1027.17
2016-03-16T02:18:59.475Z,1027.16
2016-03-16T02:19:59.461Z,1027.19
2016-03-16T02:20:59.451Z,1027.22
2016-03-16T02:21:59.437Z,1027.18
2016-03-16T02:22:59.440Z,1027.17
2016-03-16T02:23:59.426Z,1027.2
2016-03-16T02:24:59.414Z,1027.14
2016-03-16T02:25:59.417Z,1027.15
2016-03-16T02:26:59.387Z,1027.12
2016-03-16T02:27:59.390Z,1027.17
2016-03-16T02:28:59.377Z,1027.21
2016-03-16T02:29:59.381Z,1027.2
2016-03-16T02:30:59.367Z,1027.21
2016-03-16T02:31:59.355Z,1027.31
2016-03-16T02:32:59.342Z,1027.21
2016-03-16T02:33:59.328Z,1027.25
2016-03-16T02:34:59.316Z,1027.23
2016-03-16T02:35:59.303Z,1027.22
2016-03-16T02:36:59.306Z,1027.23
2016-03-16T02:37:59.292Z,1027.2
2016-03-16T02:38:59.280Z,1027.22
2016-03-16T02:39:59.282Z,1027.26
2016-03-16T02:40:59.269Z,1027.26
2016-03-16T02:41:59.257Z,1027.29
2016-03-16T02:42:59.244Z,1027.28
2016-03-16T02:43:59.230Z,1027.34
2016-03-16T02:44:59.218Z,1027.24
2016-03-16T02:45:59.204Z,1027.36
2016-03-16T02:46:59.207Z,1027.31
2016-03-16T02:47:59.193Z,1027.28
2016-03-16T02:48:59.182Z,1027.26
2016-03-16T02:49:59.168Z,1027.29
2016-03-16T02:50:59.171Z,1027.28
2016-03-16T02:51:59.158Z,1027.28
2016-03-16T02:52:59.145Z,1027.32
2016-03-16T02:53:59.132Z,1027.3
2016-03-16T02:54:59.135Z,1027.33
2016-03-16T02:55:59.123Z,1027.35
2016-03-16T02:56:59.109Z,1027.28
2016-03-16T02:57:59.128Z,1027.31
2016-03-16T02:58:59.114Z,1027.33
2016-03-16T02:59:59.070Z,1027.37
2016-03-16T03:00:59.073Z,1027.3
2016-03-16T03:01:59.061Z,1027.26
2016-03-16T03:03:00.344Z,1027.26
2016-03-16T03:03:59.033Z,1027.27
2016-03-16T03:04:59.021Z,1027.29
2016-03-16T03:05:59.008Z,1027.25
2016-03-16T03:06:59.011Z,1027.3
2016-03-16T03:07:58.997Z,1027.29
2016-03-16T03:08:58.985Z,1027.25
2016-03-16T03:09:58.972Z,1027.33
2016-03-16T03:10:58.975Z,1027.29
2016-03-16T03:11:58.962Z,1027.28
2016-03-16T03:12:58.949Z,1027.38
2016-03-16T03:13:58.936Z,1027.27
2016-03-16T03:14:58.924Z,1027.28
2016-03-16T03:15:59.223Z,1027.34
2016-03-16T03:16:58.912Z,1027.3
2016-03-16T03:17:59.088Z,1027.32
2016-03-16T03:19:59.187Z,1027.34
2016-03-16T03:21:58.864Z,1027.38
2016-03-16T03:22:58.851Z,1027.34
2016-03-16T03:23:58.838Z,1027.32
2016-03-16T03:24:58.825Z,1027.33
2016-03-16T03:25:58.828Z,1027.3
2016-03-16T03:26:58.799Z,1027.3
2016-03-16T03:27:59.848Z,1027.26
2016-03-16T03:28:59.086Z,1027.28
2016-03-16T03:29:58.776Z,1027.31
2016-03-16T03:30:58.779Z,1027.32
2016-03-16T03:31:58.766Z,1027.31
2016-03-16T03:32:58.753Z,1027.3
2016-03-16T03:33:58.740Z,1027.27
2016-03-16T03:34:58.728Z,1027.32
2016-03-16T03:35:58.714Z,1027.25
2016-03-16T03:36:58.700Z,1027.27
2016-03-16T03:37:58.689Z,1027.26
2016-03-16T03:38:58.691Z,1027.26
2016-03-16T03:39:58.677Z,1027.3
2016-03-16T03:40:58.665Z,1027.4
2016-03-16T03:41:58.652Z,1027.37
2016-03-16T03:42:58.639Z,1027.36
2016-03-16T03:43:58.626Z,1027.39
2016-03-16T03:44:58.629Z,1027.45
2016-03-16T03:45:58.616Z,1027.37
2016-03-16T03:46:58.603Z,1027.43
2016-03-16T03:47:58.590Z,1027.39
2016-03-16T03:48:58.577Z,1027.41
2016-03-16T03:49:58.565Z,1027.42
2016-03-16T03:50:58.551Z,1027.47
2016-03-16T03:51:58.554Z,1027.44
2016-03-16T03:52:58.540Z,1027.45
2016-03-16T03:53:58.528Z,1027.49
2016-03-16T03:54:58.514Z,1027.55
2016-03-16T03:55:58.517Z,1027.51
2016-03-16T03:56:58.489Z,1027.51
2016-03-16T03:57:58.476Z,1027.53
2016-03-16T03:58:58.479Z,1027.51
2016-03-16T03:59:58.466Z,1027.56
2016-03-16T04:00:58.453Z,1027.54
2016-03-16T04:01:58.440Z,1027.63
2016-03-16T04:02:58.428Z,1027.63
2016-03-16T04:03:58.414Z,1027.59
2016-03-16T04:04:58.416Z,1027.6
2016-03-16T04:05:58.403Z,1027.72
2016-03-16T04:06:58.391Z,1027.58
2016-03-16T04:07:58.377Z,1027.61
2016-03-16T04:08:58.365Z,1027.59
2016-03-16T04:09:58.352Z,1027.61
2016-03-16T04:10:58.339Z,1027.62
2016-03-16T04:11:58.342Z,1027.68
2016-03-16T04:12:58.329Z,1027.69
2016-03-16T04:13:58.316Z,1027.65
2016-03-16T04:14:58.302Z,1027.65
2016-03-16T04:15:58.290Z,1027.64
2016-03-16T04:16:58.277Z,1027.62
2016-03-16T04:17:58.279Z,1027.68
2016-03-16T04:18:58.251Z,1027.7
2016-03-16T04:19:58.254Z,1027.67
2016-03-16T04:20:58.241Z,1027.64
2016-03-16T04:21:58.228Z,1027.66
2016-03-16T04:22:58.216Z,1027.67
2016-03-16T04:23:59.312Z,1027.71
2016-03-16T04:24:58.189Z,1027.72
2016-03-16T04:25:58.645Z,1027.73
2016-03-16T04:26:58.179Z,1027.75
2016-03-16T04:27:58.167Z,1027.73
2016-03-16T04:28:58.153Z,1027.79
2016-03-16T04:29:58.140Z,1027.76
2016-03-16T04:30:58.253Z,1027.76
2016-03-16T04:31:58.115Z,1027.77
2016-03-16T04:32:58.398Z,1027.71
2016-03-16T04:33:58.808Z,1027.71
2016-03-16T04:34:58.076Z,1027.74
2016-03-16T04:35:58.078Z,1027.73
2016-03-16T04:37:58.052Z,1027.76
2016-03-16T04:38:58.040Z,1027.7
2016-03-16T04:39:58.027Z,1027.73
2016-03-16T04:40:58.014Z,1027.74
2016-03-16T04:41:58.016Z,1027.76
2016-03-16T04:42:58.003Z,1027.75
2016-03-16T04:43:57.975Z,1027.75
2016-03-16T04:44:57.978Z,1027.8
2016-03-16T04:45:57.965Z,1027.75
2016-03-16T04:46:57.952Z,1027.8
2016-03-16T04:47:57.954Z,1027.81
2016-03-16T04:48:57.941Z,1027.83
2016-03-16T04:49:58.663Z,1027.87
2016-03-16T04:50:57.900Z,1027.89
2016-03-16T04:51:58.293Z,1027.84
2016-03-16T04:52:58.234Z,1027.89
2016-03-16T04:53:57.876Z,1027.89
2016-03-16T04:54:57.864Z,1027.92
2016-03-16T04:55:57.851Z,1027.95
2016-03-16T04:56:57.838Z,1027.92
2016-03-16T04:57:57.825Z,1027.96
2016-03-16T04:58:57.828Z,1028.02
2016-03-16T04:59:57.799Z,1028
2016-03-16T05:00:57.801Z,1028.01
2016-03-16T05:01:57.789Z,1028.02
2016-03-16T05:02:57.776Z,1028.03
2016-03-16T05:03:57.779Z,1028.04
2016-03-16T05:04:57.750Z,1028.05
2016-03-16T05:05:57.737Z,1028.12
2016-03-16T05:06:57.730Z,1028.06
2016-03-16T05:07:57.717Z,1028.05
2016-03-16T05:08:57.704Z,1028.06
2016-03-16T05:09:57.692Z,1028.06
2016-03-16T05:10:57.678Z,1028.08
2016-03-16T05:11:57.665Z,1028.08
2016-03-16T05:12:57.652Z,1028.04
2016-03-16T05:13:57.655Z,1028.01
2016-03-16T05:14:57.627Z,1028.07
2016-03-16T05:15:57.630Z,1028.09
2016-03-16T05:16:57.617Z,1028.12
2016-03-16T05:17:57.603Z,1028.08
2016-03-16T05:18:57.591Z,1028.16
2016-03-16T05:19:57.577Z,1028.16
2016-03-16T05:20:57.580Z,1028.21
2016-03-16T05:21:57.567Z,1028.2
2016-03-16T05:22:57.554Z,1028.21
2016-03-16T05:23:57.541Z,1028.18
2016-03-16T05:24:57.529Z,1028.19
2016-03-16T05:25:57.516Z,1028.23
2016-03-16T05:26:57.503Z,1028.24
2016-03-16T05:27:57.505Z,1028.23
2016-03-16T05:28:57.477Z,1028.28
2016-03-16T05:29:57.463Z,1028.26
2016-03-16T05:30:57.451Z,1028.24
2016-03-16T05:31:57.454Z,1028.27
2016-03-16T05:32:57.440Z,1028.28
2016-03-16T05:33:57.428Z,1028.28
2016-03-16T05:34:57.415Z,1028.33
2016-03-16T05:35:57.401Z,1028.3
2016-03-16T05:36:57.389Z,1028.29
2016-03-16T05:37:57.392Z,1028.34
2016-03-16T05:38:57.379Z,1028.33
2016-03-16T05:39:57.351Z,1028.35
2016-03-16T05:42:57.327Z,1028.35
2016-03-16T05:43:57.314Z,1028.42
2016-03-16T05:44:57.301Z,1028.43
2016-03-16T05:45:57.288Z,1028.5
2016-03-16T05:46:57.291Z,1028.51
2016-03-16T05:47:57.277Z,1028.48
2016-03-16T05:48:57.264Z,1028.46
2016-03-16T05:49:57.252Z,1028.47
2016-03-16T05:50:57.239Z,1028.56
2016-03-16T05:51:57.227Z,1028.54
2016-03-16T05:52:57.213Z,1028.53
2016-03-16T05:53:57.216Z,1028.53
2016-03-16T05:54:57.187Z,1028.58
2016-03-16T05:55:57.190Z,1028.6
2016-03-16T05:57:57.914Z,1028.7
2016-03-16T05:58:57.167Z,1028.62
2016-03-16T05:59:57.139Z,1028.64
2016-03-16T06:00:57.157Z,1028.62
2016-03-16T06:01:57.113Z,1028.63
2016-03-16T06:02:57.366Z,1028.69
2016-03-16T06:03:57.102Z,1028.71
2016-03-16T06:04:57.090Z,1028.64
2016-03-16T06:05:58.123Z,1028.6
2016-03-16T06:06:57.079Z,1028.59
2016-03-16T06:07:57.065Z,1028.68
2016-03-16T06:08:57.053Z,1028.63
2016-03-16T06:09:57.040Z,1028.64
2016-03-16T06:10:57.027Z,1028.61
2016-03-16T06:11:57.031Z,1028.65
2016-03-16T06:12:57.001Z,1028.62
2016-03-16T06:13:57.004Z,1028.68
2016-03-16T06:14:56.992Z,1028.69
2016-03-16T06:15:56.978Z,1028.68
2016-03-16T06:16:56.965Z,1028.67
2016-03-16T06:17:56.967Z,1028.7
2016-03-16T06:18:56.955Z,1028.75
2016-03-16T06:19:56.942Z,1028.77
2016-03-16T06:20:56.944Z,1028.76
2016-03-16T06:21:56.932Z,1028.8
2016-03-16T06:22:56.919Z,1028.86
2016-03-16T06:23:56.905Z,1028.79
2016-03-16T06:24:56.909Z,1028.82
2016-03-16T06:25:56.896Z,1028.88
2016-03-16T06:26:56.883Z,1028.94
2016-03-16T06:27:56.886Z,1028.93
2016-03-16T06:28:56.873Z,1028.9
2016-03-16T06:29:56.874Z,1028.98
2016-03-16T06:30:56.862Z,1028.92
2016-03-16T06:31:56.849Z,1028.96
2016-03-16T06:32:56.837Z,1028.95
2016-03-16T06:33:56.840Z,1029.03
2016-03-16T06:34:56.826Z,1028.97
2016-03-16T06:35:56.829Z,1028.94
2016-03-16T06:36:56.815Z,1029.05
2016-03-16T06:37:56.804Z,1028.99
2016-03-16T06:38:56.790Z,1029
2016-03-16T06:39:56.792Z,1029.02
2016-03-16T06:40:56.795Z,1029.06
2016-03-16T06:41:56.782Z,1029.02
2016-03-16T06:42:56.769Z,1029.03
2016-03-16T06:43:56.773Z,1029.08
2016-03-16T06:44:56.759Z,1029.1
2016-03-16T06:45:56.762Z,1029.11
2016-03-16T06:46:56.750Z,1029.08
2016-03-16T06:47:56.752Z,1029.1
2016-03-16T06:48:56.739Z,1029.1
2016-03-16T06:49:56.741Z,1029.15
2016-03-16T06:50:56.728Z,1029.17
2016-03-16T06:51:56.731Z,1029.1
2016-03-16T06:52:56.719Z,1029.11
2016-03-16T06:53:56.722Z,1029.15
2016-03-16T06:54:56.724Z,1029.16
2016-03-16T06:55:56.711Z,1029.15
2016-03-16T06:56:56.697Z,1029.15
2016-03-16T06:57:56.700Z,1029.11
2016-03-16T06:58:56.687Z,1029.12
2016-03-16T06:59:56.690Z,1029.09
2016-03-16T07:00:56.677Z,1029.15
2016-03-16T07:01:56.680Z,1029.22
2016-03-16T07:02:56.683Z,1029.27
2016-03-16T07:03:56.671Z,1029.27
2016-03-16T07:04:56.657Z,1029.32
2016-03-16T07:05:56.660Z,1029.24
2016-03-16T07:06:56.663Z,1029.33
2016-03-16T07:07:56.649Z,1029.39
2016-03-16T07:09:56.639Z,1029.47
2016-03-16T07:10:56.642Z,1029.41
2016-03-16T07:11:56.644Z,1029.42
2016-03-16T07:12:56.647Z,1029.56
2016-03-16T07:13:56.650Z,1029.59
2016-03-16T07:14:56.636Z,1029.64
2016-03-16T07:18:05.645Z,1029.89
2016-03-16T07:19:05.632Z,1029.86
2016-03-16T07:20:05.634Z,1029.83
2016-03-16T07:21:05.637Z,1029.89
2016-03-16T07:22:05.624Z,1029.83
2016-03-16T07:23:05.627Z,1029.68
2016-03-16T07:24:05.614Z,1029.85
2016-03-16T07:25:05.617Z,1029.96
2016-03-16T07:26:06.214Z,1029.89
2016-03-16T07:27:05.623Z,1029.71
2016-03-16T07:28:05.610Z,1029.72
2016-03-16T07:29:05.613Z,1030.12
2016-03-16T07:30:05.615Z,1029.6
2016-03-16T07:31:05.618Z,1029.8
2016-03-16T07:32:05.620Z,1030.14
2016-03-16T07:33:05.623Z,1030.05
2016-03-16T07:34:05.626Z,1029.89
2016-03-16T07:35:05.612Z,1029.97
2016-03-16T07:36:05.615Z,1030.03
2016-03-16T07:37:05.618Z,1030
2016-03-16T07:38:05.621Z,1029.47
2016-03-16T07:39:05.608Z,1029.54
2016-03-16T07:40:05.610Z,1029.93
2016-03-16T07:41:05.613Z,1029.66
2016-03-16T07:42:05.631Z,1029.84
2016-03-16T07:43:05.618Z,1029.82
2016-03-16T07:44:05.605Z,1029.82
2016-03-16T07:45:05.608Z,1029.94
2016-03-16T07:46:05.611Z,1029.91
2016-03-16T07:47:05.597Z,1029.98
2016-03-16T07:48:05.600Z,1029.85
2016-03-16T07:49:05.603Z,1029.91
2016-03-16T07:50:05.606Z,1029.95
2016-03-16T07:51:05.609Z,1029.65
2016-03-16T07:52:05.595Z,1029.6
2016-03-16T07:53:05.598Z,1029.82
2016-03-16T07:54:05.600Z,1029.77
2016-03-16T07:55:05.603Z,1029.7
2016-03-16T07:56:05.591Z,1029.69
2016-03-16T07:57:05.594Z,1029.64
2016-03-16T07:58:05.581Z,1029.63
2016-03-16T07:59:05.584Z,1029.74
2016-03-16T08:00:05.586Z,1029.74
2016-03-16T08:01:05.574Z,1030.22
2016-03-16T08:02:05.576Z,1030.28
2016-03-16T08:03:05.579Z,1030.48
2016-03-16T08:04:05.565Z,1030.55
2016-03-16T08:05:05.568Z,1030.79
2016-03-16T08:06:05.555Z,1030.49
2016-03-16T08:07:05.554Z,1030
2016-03-16T08:08:05.557Z,1029.92
2016-03-16T08:09:05.559Z,1029.97
2016-03-16T08:10:05.547Z,1030.02
2016-03-16T08:11:05.549Z,1030.05
2016-03-16T08:12:05.552Z,1029.93
2016-03-16T08:13:05.539Z,1029.94
2016-03-16T08:14:05.541Z,1030.11
2016-03-16T08:15:05.529Z,1030.05
2016-03-16T08:16:05.532Z,1029.91
2016-03-16T08:17:05.535Z,1029.79
2016-03-16T08:18:05.552Z,1029.84
2016-03-16T08:19:05.524Z,1029.86
2016-03-16T08:20:05.527Z,1029.83
2016-03-16T08:21:05.514Z,1029.81
2016-03-16T08:22:05.516Z,1029.82
2016-03-16T08:23:05.503Z,1029.95
2016-03-16T08:24:05.506Z,1029.9
2016-03-16T08:25:05.493Z,1029.83
2016-03-16T08:26:05.496Z,1029.88
2016-03-16T08:27:05.483Z,1029.9
2016-03-16T08:28:05.782Z,1029.79
2016-03-16T08:29:05.473Z,1029.81
2016-03-16T08:30:06.445Z,1029.89
2016-03-16T08:31:05.462Z,1030
2016-03-16T08:32:05.450Z,1029.91
2016-03-16T08:33:05.453Z,1029.92
2016-03-16T08:34:05.439Z,1029.94
2016-03-16T08:35:05.442Z,1029.93
2016-03-16T08:36:05.429Z,1029.9
2016-03-16T08:37:05.478Z,1029.87
2016-03-16T08:38:05.419Z,1030.02
2016-03-16T08:39:05.422Z,1029.93
2016-03-16T08:40:05.424Z,1030.01
2016-03-16T08:41:05.395Z,1029.96
2016-03-16T08:42:05.397Z,1029.9
2016-03-16T08:43:05.385Z,1029.93
2016-03-16T08:44:06.138Z,1029.94
2016-03-16T08:46:05.377Z,1029.95
2016-03-16T08:47:05.366Z,1029.92
2016-03-16T08:48:05.368Z,1029.86
2016-03-16T08:49:05.355Z,1029.88
2016-03-16T08:50:05.341Z,1029.93
2016-03-16T08:51:05.344Z,1029.83
2016-03-16T08:52:05.332Z,1029.83
2016-03-16T08:53:05.318Z,1029.84
2016-03-16T08:54:05.321Z,1029.89
2016-03-16T08:55:05.308Z,1029.88
2016-03-16T08:56:05.296Z,1029.92
2016-03-16T08:57:05.298Z,1030.08
2016-03-16T08:58:05.285Z,1029.94
2016-03-16T08:59:05.288Z,1030.02
2016-03-16T09:00:05.275Z,1029.97
2016-03-16T09:01:05.278Z,1029.94
2016-03-16T09:02:05.265Z,1030
2016-03-16T09:03:05.267Z,1029.98
2016-03-16T09:04:05.254Z,1029.99
2016-03-16T09:05:05.241Z,1029.95
2016-03-16T09:06:05.245Z,1029.93
2016-03-16T09:07:05.236Z,1029.93
2016-03-16T09:08:05.223Z,1029.96
2016-03-16T09:09:05.211Z,1029.96
2016-03-16T09:10:05.213Z,1029.96
2016-03-16T09:11:05.200Z,1029.96
2016-03-16T09:12:05.186Z,1030.01
2016-03-16T09:13:05.189Z,1029.92
2016-03-16T09:14:05.177Z,1029.92
2016-03-16T09:15:05.179Z,1029.89
2016-03-16T09:16:05.166Z,1030.02
2016-03-16T09:17:05.154Z,1029.98
2016-03-16T09:18:05.156Z,1029.88
2016-03-16T09:19:05.143Z,1029.89
2016-03-16T09:20:05.145Z,1029.87
2016-03-16T09:21:05.135Z,1029.95
2016-03-16T09:22:05.123Z,1029.87
2016-03-16T09:23:05.110Z,1029.85
2016-03-16T09:24:05.113Z,1029.81
2016-03-16T09:25:05.112Z,1029.81
2016-03-16T09:26:05.091Z,1029.87
2016-03-16T09:27:05.372Z,1029.89
2016-03-16T09:28:05.033Z,1029.8
2016-03-16T09:29:05.010Z,1029.84
2016-03-16T09:30:14.166Z,1029.87
2016-03-16T09:31:04.980Z,1029.78
2016-03-16T09:32:04.978Z,1029.78
2016-03-16T09:33:04.960Z,1029.97
2016-03-16T09:34:04.958Z,1029.87
2016-03-16T09:35:04.942Z,1029.83
2016-03-16T09:36:04.927Z,1029.85
2016-03-16T09:37:04.911Z,1029.94
2016-03-16T09:38:04.897Z,1029.89
2016-03-16T09:39:04.897Z,1029.86
2016-03-16T09:40:06.070Z,1029.81
2016-03-16T09:41:05.026Z,1029.93
2016-03-16T09:42:05.825Z,1029.93
2016-03-16T09:43:04.858Z,1029.9
2016-03-16T09:44:04.859Z,1029.84
2016-03-16T09:45:05.424Z,1029.77
2016-03-16T09:46:04.834Z,1029.76
2016-03-16T09:47:06.664Z,1029.77
2016-03-16T09:48:04.823Z,1029.77
2016-03-16T09:49:04.826Z,1029.82
2016-03-16T09:50:04.812Z,1029.76
2016-03-16T09:51:05.112Z,1029.78
2016-03-16T09:52:04.802Z,1029.78
2016-03-16T09:53:04.789Z,1029.74
2016-03-16T09:54:06.245Z,1029.77
2016-03-16T09:55:05.529Z,1029.78
2016-03-16T09:56:04.767Z,1029.74
2016-03-16T09:57:04.768Z,1029.76
2016-03-16T09:58:04.772Z,1029.65
2016-03-16T09:59:04.758Z,1029.7
2016-03-16T10:00:04.746Z,1029.78
2016-03-16T10:01:04.732Z,1029.75
2016-03-16T10:02:04.736Z,1029.89
2016-03-16T10:03:04.722Z,1029.7
2016-03-16T10:04:04.724Z,1029.69
2016-03-16T10:05:04.712Z,1029.76
2016-03-16T10:06:04.715Z,1029.74
2016-03-16T10:07:04.701Z,1029.8
2016-03-16T10:08:04.690Z,1029.64
2016-03-16T10:09:04.692Z,1029.76
2016-03-16T10:10:04.678Z,1029.72
2016-03-16T10:11:04.666Z,1029.74
2016-03-16T10:12:04.668Z,1029.7
2016-03-16T10:13:04.656Z,1029.68
2016-03-16T10:14:04.658Z,1029.73
2016-03-16T10:15:04.646Z,1029.79
2016-03-16T10:16:04.648Z,1029.82
2016-03-16T10:17:04.635Z,1029.99
2016-03-16T10:18:04.623Z,1029.92
2016-03-16T10:19:04.625Z,1030
2016-03-16T10:20:04.612Z,1029.99
2016-03-16T10:21:04.614Z,1029.95
2016-03-16T10:22:04.603Z,1030
2016-03-16T10:23:04.605Z,1030.02
2016-03-16T10:24:04.592Z,1030.1
2016-03-16T10:25:04.594Z,1030.12
2016-03-16T10:26:04.581Z,1030.15
2016-03-16T10:27:04.569Z,1030.15
2016-03-16T10:28:04.571Z,1030.14
2016-03-16T10:29:04.558Z,1030.18
2016-03-16T10:30:04.545Z,1030.12
2016-03-16T10:31:04.547Z,1030.08
2016-03-16T10:32:04.535Z,1029.98
2016-03-16T10:33:04.538Z,1029.84
2016-03-16T10:34:04.524Z,1029.73
2016-03-16T10:35:04.527Z,1029.7
2016-03-16T10:36:04.530Z,1029.7
2016-03-16T10:37:04.518Z,1029.69
2016-03-16T10:38:04.520Z,1029.7
2016-03-16T10:39:04.507Z,1029.72
2016-03-16T10:40:04.509Z,1029.74
2016-03-16T10:41:04.496Z,1029.86
2016-03-16T10:42:04.484Z,1029.77
2016-03-16T10:43:04.486Z,1029.8
2016-03-16T10:44:04.473Z,1029.83
2016-03-16T10:45:04.476Z,1029.82
2016-03-16T10:46:04.462Z,1029.85
2016-03-16T10:47:04.450Z,1029.87
2016-03-16T10:48:04.453Z,1029.85
2016-03-16T10:49:04.456Z,1029.83
2016-03-16T10:50:04.442Z,1029.87
2016-03-16T10:51:04.446Z,1029.84
2016-03-16T10:52:04.433Z,1029.81
2016-03-16T10:53:04.436Z,1029.73
2016-03-16T10:54:04.422Z,1029.82
2016-03-16T10:55:04.409Z,1029.73
2016-03-16T10:56:04.412Z,1029.75
2016-03-16T10:57:04.400Z,1029.66
2016-03-16T10:58:04.699Z,1029.67
2016-03-16T10:59:04.389Z,1029.56
2016-03-16T11:00:04.422Z,1029.61
2016-03-16T11:01:04.379Z,1029.59
2016-03-16T11:02:04.741Z,1029.67
2016-03-16T11:03:04.431Z,1029.69
2016-03-16T11:04:04.372Z,1029.69
2016-03-16T11:05:04.358Z,1029.7
2016-03-16T11:06:04.346Z,1029.65
2016-03-16T11:07:04.348Z,1029.69
2016-03-16T11:08:04.335Z,1029.71
2016-03-16T11:09:04.338Z,1029.77
2016-03-16T11:10:04.325Z,1029.8
2016-03-16T11:11:04.312Z,1029.72
2016-03-16T11:12:04.315Z,1029.7
2016-03-16T11:13:04.911Z,1029.69
2016-03-16T11:14:04.304Z,1029.71
2016-03-16T11:15:05.120Z,1029.79
2016-03-16T11:16:04.294Z,1029.72
2016-03-16T11:17:04.282Z,1029.65
2016-03-16T11:18:04.284Z,1029.73
2016-03-16T11:19:04.271Z,1029.69
2016-03-16T11:20:04.259Z,1029.67
2016-03-16T11:21:04.261Z,1029.69
2016-03-16T11:22:04.264Z,1029.64
2016-03-16T11:23:04.250Z,1029.75
2016-03-16T11:25:04.240Z,1029.73
2016-03-16T11:26:04.227Z,1029.77
2016-03-16T11:27:04.370Z,1029.75
2016-03-16T11:28:04.326Z,1029.64
2016-03-16T11:29:04.220Z,1029.68
2016-03-16T11:30:04.207Z,1029.64
2016-03-16T11:31:04.195Z,1029.66
2016-03-16T11:32:04.197Z,1029.69
2016-03-16T11:33:04.184Z,1029.72
2016-03-16T11:34:04.186Z,1029.67
2016-03-16T11:35:04.188Z,1029.67
2016-03-16T11:36:04.177Z,1029.57
2016-03-16T11:37:04.179Z,1029.64
2016-03-16T11:38:04.166Z,1029.72
2016-03-16T11:39:04.152Z,1029.63
2016-03-16T11:40:04.156Z,1029.64
2016-03-16T11:41:04.143Z,1029.58
2016-03-16T11:42:04.145Z,1029.52
2016-03-16T11:43:04.133Z,1029.55
2016-03-16T11:44:04.135Z,1029.47
2016-03-16T11:45:04.154Z,1029.49
2016-03-16T11:46:04.124Z,1029.45
2016-03-16T11:47:04.112Z,1029.43
2016-03-16T11:48:04.099Z,1029.55
2016-03-16T11:49:04.102Z,1029.67
2016-03-16T11:50:04.089Z,1029.5
2016-03-16T11:51:04.092Z,1029.48
2016-03-16T11:52:04.079Z,1029.54
2016-03-16T11:53:04.081Z,1029.51
2016-03-16T11:54:04.068Z,1029.53
2016-03-16T11:55:04.070Z,1029.41
2016-03-16T11:56:04.059Z,1029.43
2016-03-16T11:57:04.061Z,1029.4
2016-03-16T11:58:04.048Z,1029.33
2016-03-16T11:59:04.050Z,1029.38
2016-03-16T12:00:04.037Z,1029.36
2016-03-16T12:01:04.040Z,1029.27
2016-03-16T12:02:04.027Z,1029.41
2016-03-16T12:03:04.030Z,1029.31
2016-03-16T12:04:04.017Z,1029.32
2016-03-16T12:05:04.005Z,1029.33
2016-03-16T12:06:04.007Z,1029.33
2016-03-16T12:07:04.010Z,1029.28
2016-03-16T12:08:03.997Z,1029.34
2016-03-16T12:09:03.999Z,1029.34
2016-03-16T12:10:03.986Z,1029.35
2016-03-16T12:11:03.974Z,1029.34
2016-03-16T12:12:03.976Z,1029.29
2016-03-16T12:13:03.963Z,1029.3
2016-03-16T12:14:03.966Z,1029.34
2016-03-16T12:15:04.015Z,1029.35
2016-03-16T12:16:05.237Z,1029.25
2016-03-16T12:17:05.740Z,1029.27
2016-03-16T12:18:03.946Z,1029.21
2016-03-16T12:19:03.932Z,1029.32
2016-03-16T12:20:03.935Z,1029.35
2016-03-16T12:21:03.923Z,1029.29